createdAt,value
2019-01-30T00:01:03.755Z,0.30
2019-01-30T00:02:10.442Z,0.30
2019-01-30T00:03:17.516Z,0.30
2019-01-30T00:04:24.329Z,0.30
2019-01-30T00:05:31.029Z,0.30
2019-01-30T00:06:37.677Z,0.30
2019-01-30T00:07:44.363Z,0.30
2019-01-30T00:08:51.100Z,0.30
2019-01-30T00:09:57.788Z,0.30
2019-01-30T00:11:04.743Z,0.20
2019-01-30T00:12:11.402Z,0.20
2019-01-30T00:13:19.873Z,0.30
2019-01-30T00:14:26.547Z,0.30
2019-01-30T00:15:33.922Z,0.30
2019-01-30T00:16:40.717Z,0.30
2019-01-30T00:17:47.408Z,0.20
2019-01-30T00:18:54.143Z,0.20
2019-01-30T00:20:01.171Z,0.20
2019-01-30T00:21:07.853Z,0.20
2019-01-30T00:22:15.356Z,0.20
2019-01-30T00:23:22.030Z,0.20
2019-01-30T00:24:29.007Z,0.20
2019-01-30T00:25:35.696Z,0.30
2019-01-30T00:26:42.848Z,0.30
2019-01-30T00:27:49.561Z,0.30
2019-01-30T00:28:56.301Z,0.30
2019-01-30T00:30:04.464Z,0.30
2019-01-30T00:31:11.670Z,0.30
2019-01-30T00:32:18.362Z,0.30
2019-01-30T00:33:25.458Z,0.30
2019-01-30T00:34:32.124Z,0.30
2019-01-30T00:35:39.168Z,0.30
2019-01-30T00:36:45.896Z,0.30
2019-01-30T00:37:52.682Z,0.30
2019-01-30T00:38:59.707Z,0.20
2019-01-30T00:40:07.399Z,0.20
2019-01-30T00:41:14.481Z,0.30
2019-01-30T00:42:21.147Z,0.20
2019-01-30T00:43:28.352Z,0.30
2019-01-30T00:44:35.049Z,0.20
2019-01-30T00:45:41.765Z,0.20
2019-01-30T00:46:48.580Z,0.30
2019-01-30T00:47:55.343Z,0.20
2019-01-30T00:49:01.978Z,0.20
2019-01-30T00:50:10.686Z,0.20
2019-01-30T00:51:17.340Z,0.20
2019-01-30T00:52:24.058Z,0.20
2019-01-30T00:53:30.852Z,0.20
2019-01-30T00:54:37.514Z,0.20
2019-01-30T00:55:44.246Z,0.20
2019-01-30T00:56:50.927Z,0.20
2019-01-30T00:57:57.973Z,0.20
2019-01-30T00:59:05.036Z,0.10
2019-01-30T01:00:16.934Z,0.10
2019-01-30T01:01:24.031Z,0.10
2019-01-30T01:02:31.272Z,0.10
2019-01-30T01:03:37.912Z,0.10
2019-01-30T01:04:44.839Z,0.10
2019-01-30T01:05:51.896Z,0.10
2019-01-30T01:06:58.755Z,0.10
2019-01-30T01:08:05.655Z,0.10
2019-01-30T01:09:12.344Z,0.10
2019-01-30T01:10:19.614Z,0.10
2019-01-30T01:11:26.729Z,0.10
2019-01-30T01:12:33.434Z,0.10
2019-01-30T01:13:40.190Z,0.10
2019-01-30T01:14:46.845Z,0.10
2019-01-30T01:15:53.905Z,0.20
2019-01-30T01:17:00.636Z,0.10
2019-01-30T01:18:08.091Z,0.20
2019-01-30T01:19:14.745Z,0.20
2019-01-30T01:20:22.132Z,0.10
2019-01-30T01:21:28.807Z,0.20
2019-01-30T01:22:36.033Z,0.20
2019-01-30T01:23:43.415Z,0.20
2019-01-30T01:24:50.410Z,0.20
2019-01-30T01:25:57.186Z,0.20
2019-01-30T01:27:03.880Z,0.20
2019-01-30T01:28:10.773Z,0.20
2019-01-30T01:29:17.409Z,0.20
2019-01-30T01:30:27.220Z,0.20
2019-01-30T01:31:34.191Z,0.20
2019-01-30T01:32:40.855Z,0.20
2019-01-30T01:33:47.702Z,0.20
2019-01-30T01:34:54.723Z,0.10
2019-01-30T01:36:01.688Z,0.10
2019-01-30T01:37:08.658Z,0.10
2019-01-30T01:38:15.309Z,0.10
2019-01-30T01:39:22.318Z,0.10
2019-01-30T01:40:29.561Z,0.10
2019-01-30T01:41:36.236Z,0.10
2019-01-30T01:42:42.953Z,0.20
2019-01-30T01:43:50.040Z,0.20
2019-01-30T01:44:56.785Z,0.20
2019-01-30T01:46:03.855Z,0.20
2019-01-30T01:47:10.883Z,0.20
2019-01-30T01:48:18.131Z,0.20
2019-01-30T01:49:25.204Z,0.20
2019-01-30T01:50:31.890Z,0.20
2019-01-30T01:51:38.613Z,0.10
2019-01-30T01:52:45.494Z,0.20
2019-01-30T01:53:53.048Z,0.20
2019-01-30T01:55:00.077Z,0.20
2019-01-30T01:56:07.396Z,0.20
2019-01-30T01:57:14.469Z,0.20
2019-01-30T01:58:21.911Z,0.20
2019-01-30T01:59:28.942Z,0.20
2019-01-30T02:00:35.896Z,0.20
2019-01-30T02:01:42.595Z,0.10
2019-01-30T02:02:49.506Z,0.20
2019-01-30T02:03:57.034Z,0.20
2019-01-30T02:05:04.080Z,0.20
2019-01-30T02:06:10.736Z,0.20
2019-01-30T02:07:17.430Z,0.10
2019-01-30T02:08:24.130Z,0.20
2019-01-30T02:09:31.159Z,0.20
2019-01-30T02:10:37.849Z,0.10
2019-01-30T02:11:44.520Z,0.10
2019-01-30T02:12:51.501Z,0.10
2019-01-30T02:13:58.191Z,0.10
2019-01-30T02:15:06.472Z,0.00
2019-01-30T02:16:13.428Z,0.10
2019-01-30T02:17:20.105Z,0.10
2019-01-30T02:18:27.485Z,0.10
2019-01-30T02:19:34.763Z,0.00
2019-01-30T02:20:41.506Z,0.10
2019-01-30T02:21:48.465Z,0.10
2019-01-30T02:22:55.186Z,0.10
2019-01-30T02:24:01.872Z,0.10
2019-01-30T02:25:10.882Z,0.10
2019-01-30T02:26:17.583Z,0.10
2019-01-30T02:27:24.582Z,0.10
2019-01-30T02:28:31.235Z,0.10
2019-01-30T02:29:38.287Z,0.10
2019-01-30T02:30:47.561Z,0.10
2019-01-30T02:31:53.648Z,0.10
2019-01-30T02:33:00.403Z,0.10
2019-01-30T02:34:07.138Z,0.10
2019-01-30T02:35:13.852Z,0.10
2019-01-30T02:36:20.956Z,0.10
2019-01-30T02:37:27.668Z,0.10
2019-01-30T02:38:34.685Z,0.10
2019-01-30T02:39:41.710Z,0.10
2019-01-30T02:40:48.387Z,0.10
2019-01-30T02:41:55.786Z,0.10
2019-01-30T02:43:02.495Z,0.10
2019-01-30T02:44:09.157Z,0.10
2019-01-30T02:45:19.712Z,0.10
2019-01-30T02:46:26.931Z,0.10
2019-01-30T02:47:33.634Z,0.10
2019-01-30T02:48:40.678Z,0.00
2019-01-30T02:49:47.328Z,0.10
2019-01-30T02:50:54.588Z,0.00
2019-01-30T02:52:01.304Z,0.00
2019-01-30T02:53:08.105Z,0.00
2019-01-30T02:54:14.749Z,0.00
2019-01-30T02:55:21.863Z,0.00
2019-01-30T02:56:29.270Z,0.00
2019-01-30T02:57:36.046Z,0.00
2019-01-30T02:58:42.746Z,0.00
2019-01-30T02:59:49.771Z,0.00
2019-01-30T03:00:59.481Z,0.00
2019-01-30T03:02:24.327Z,0.00
2019-01-30T03:03:31.409Z,0.00
2019-01-30T03:04:38.073Z,0.00
2019-01-30T03:05:45.482Z,0.00
2019-01-30T03:06:52.172Z,0.00
2019-01-30T03:07:58.988Z,0.10
2019-01-30T03:09:07.695Z,0.00
2019-01-30T03:10:17.733Z,0.10
2019-01-30T03:11:24.732Z,0.10
2019-01-30T03:12:31.423Z,0.10
2019-01-30T03:13:38.274Z,0.10
2019-01-30T03:14:45.252Z,0.20
2019-01-30T03:15:51.979Z,0.20
2019-01-30T03:16:59.119Z,0.20
2019-01-30T03:18:06.005Z,0.20
2019-01-30T03:19:12.750Z,0.10
2019-01-30T03:20:23.374Z,0.10
2019-01-30T03:21:30.165Z,0.20
2019-01-30T03:22:36.864Z,0.20
2019-01-30T03:23:43.542Z,0.20
2019-01-30T03:24:50.595Z,0.20
2019-01-30T03:25:57.291Z,0.20
2019-01-30T03:27:04.026Z,0.20
2019-01-30T03:28:10.698Z,0.20
2019-01-30T03:29:17.783Z,0.10
2019-01-30T03:30:30.906Z,0.20
2019-01-30T03:31:37.670Z,0.20
2019-01-30T03:32:45.042Z,0.20
2019-01-30T03:33:52.088Z,0.30
2019-01-30T03:34:59.409Z,0.30
2019-01-30T03:36:06.097Z,0.30
2019-01-30T03:37:12.813Z,0.20
2019-01-30T03:38:19.774Z,0.20
2019-01-30T03:39:26.459Z,0.20
2019-01-30T03:40:33.183Z,0.20
2019-01-30T03:41:39.968Z,0.20
2019-01-30T03:42:46.856Z,0.20
2019-01-30T03:43:53.956Z,0.20
2019-01-30T03:45:01.635Z,0.20
2019-01-30T03:46:08.345Z,0.20
2019-01-30T03:47:15.003Z,0.20
2019-01-30T03:48:21.665Z,0.20
2019-01-30T03:49:28.544Z,0.20
2019-01-30T03:50:35.174Z,0.10
2019-01-30T03:51:42.235Z,0.20
2019-01-30T03:52:49.329Z,0.10
2019-01-30T03:53:56.392Z,0.10
2019-01-30T03:55:03.195Z,0.10
2019-01-30T03:56:10.258Z,0.10
2019-01-30T03:57:16.891Z,0.10
2019-01-30T03:58:23.620Z,0.10
2019-01-30T03:59:30.651Z,0.10
2019-01-30T04:00:37.376Z,0.10
2019-01-30T04:01:44.364Z,0.10
2019-01-30T04:02:52.025Z,0.10
2019-01-30T04:03:58.757Z,0.10
2019-01-30T04:05:05.855Z,0.10
2019-01-30T04:06:12.944Z,0.00
2019-01-30T04:07:19.646Z,0.00
2019-01-30T04:08:26.351Z,0.00
2019-01-30T04:09:32.965Z,0.00
2019-01-30T04:10:39.693Z,0.00
2019-01-30T04:11:46.502Z,-0.10
2019-01-30T04:12:53.412Z,-0.10
2019-01-30T04:14:00.852Z,0.00
2019-01-30T04:15:08.833Z,-0.10
2019-01-30T04:16:15.875Z,-0.10
2019-01-30T04:17:22.757Z,-0.10
2019-01-30T04:18:29.479Z,-0.10
2019-01-30T04:19:36.144Z,-0.10
2019-01-30T04:20:43.261Z,-0.10
2019-01-30T04:21:50.354Z,-0.10
2019-01-30T04:22:57.363Z,-0.10
2019-01-30T04:24:04.403Z,-0.10
2019-01-30T04:25:11.594Z,-0.10
2019-01-30T04:26:18.775Z,-0.10
2019-01-30T04:27:25.480Z,-0.10
2019-01-30T04:28:32.203Z,-0.10
2019-01-30T04:29:39.174Z,0.00
2019-01-30T04:30:45.869Z,0.00
2019-01-30T04:31:52.824Z,0.00
2019-01-30T04:32:59.898Z,-0.10
2019-01-30T04:34:07.040Z,-0.10
2019-01-30T04:35:13.703Z,0.00
2019-01-30T04:36:20.728Z,0.00
2019-01-30T04:37:27.798Z,0.00
2019-01-30T04:38:34.882Z,0.00
2019-01-30T04:39:41.556Z,0.00
2019-01-30T04:40:48.604Z,0.00
2019-01-30T04:41:55.316Z,0.00
2019-01-30T04:43:02.529Z,0.00
2019-01-30T04:44:09.190Z,0.00
2019-01-30T04:45:19.488Z,0.00
2019-01-30T04:46:26.184Z,0.00
2019-01-30T04:47:33.548Z,0.00
2019-01-30T04:48:40.381Z,0.00
2019-01-30T04:49:47.113Z,0.00
2019-01-30T04:50:54.137Z,0.00
2019-01-30T04:52:01.662Z,0.00
2019-01-30T04:53:08.778Z,0.00
2019-01-30T04:54:15.607Z,0.00
2019-01-30T04:55:22.302Z,0.10
2019-01-30T04:56:29.125Z,0.10
2019-01-30T04:57:35.848Z,0.10
2019-01-30T04:58:42.516Z,0.00
2019-01-30T04:59:49.807Z,0.00
2019-01-30T05:00:56.881Z,0.00
2019-01-30T05:02:03.819Z,0.00
2019-01-30T05:03:10.840Z,0.00
2019-01-30T05:04:17.915Z,-0.10
2019-01-30T05:05:24.747Z,0.00
2019-01-30T05:06:31.468Z,-0.10
2019-01-30T05:07:38.127Z,-0.10
2019-01-30T05:08:44.795Z,0.00
2019-01-30T05:09:51.789Z,0.00
2019-01-30T05:10:58.501Z,-0.10
2019-01-30T05:12:05.440Z,-0.10
2019-01-30T05:13:12.593Z,-0.10
2019-01-30T05:14:19.739Z,-0.10
2019-01-30T05:15:26.487Z,-0.10
2019-01-30T05:16:33.148Z,0.00
2019-01-30T05:17:40.150Z,-0.10
2019-01-30T05:18:47.041Z,-0.10
2019-01-30T05:19:53.986Z,-0.10
2019-01-30T05:21:00.622Z,0.00
2019-01-30T05:22:07.307Z,-0.10
2019-01-30T05:23:13.989Z,-0.10
2019-01-30T05:24:21.154Z,-0.10
2019-01-30T05:25:27.843Z,-0.10
2019-01-30T05:26:34.833Z,-0.10
2019-01-30T05:27:41.812Z,-0.10
2019-01-30T05:28:48.538Z,-0.10
2019-01-30T05:29:55.590Z,-0.10
2019-01-30T05:31:02.254Z,-0.10
2019-01-30T05:32:09.114Z,-0.10
2019-01-30T05:33:16.153Z,-0.10
2019-01-30T05:34:24.644Z,-0.10
2019-01-30T05:35:32.097Z,-0.10
2019-01-30T05:36:38.784Z,-0.10
2019-01-30T05:37:45.771Z,-0.10
2019-01-30T05:38:52.568Z,-0.10
2019-01-30T05:39:59.332Z,-0.10
2019-01-30T05:41:06.020Z,-0.10
2019-01-30T05:42:13.203Z,-0.10
2019-01-30T05:43:20.193Z,-0.20
2019-01-30T05:44:27.161Z,-0.20
2019-01-30T05:45:34.135Z,-0.20
2019-01-30T05:46:41.244Z,-0.10
2019-01-30T05:47:47.937Z,-0.20
2019-01-30T05:48:54.650Z,-0.10
2019-01-30T05:50:01.368Z,-0.10
2019-01-30T05:51:08.125Z,-0.10
2019-01-30T05:52:14.826Z,-0.10
2019-01-30T05:53:21.575Z,-0.10
2019-01-30T05:54:28.350Z,-0.10
2019-01-30T05:55:35.054Z,-0.10
2019-01-30T05:56:41.729Z,-0.20
2019-01-30T05:57:48.488Z,-0.10
2019-01-30T05:58:55.359Z,-0.10
2019-01-30T06:00:02.024Z,-0.10
2019-01-30T06:01:09.131Z,-0.10
2019-01-30T06:02:15.926Z,-0.10
2019-01-30T06:03:22.983Z,-0.10
2019-01-30T06:04:29.697Z,-0.10
2019-01-30T06:05:36.390Z,-0.10
2019-01-30T06:06:43.088Z,-0.10
2019-01-30T06:07:49.796Z,-0.10
2019-01-30T06:08:56.470Z,0.00
2019-01-30T06:10:04.063Z,-0.10
2019-01-30T06:11:12.237Z,-0.10
2019-01-30T06:12:18.906Z,-0.10
2019-01-30T06:13:26.593Z,-0.10
2019-01-30T06:14:33.289Z,-0.10
2019-01-30T06:15:40.362Z,0.00
2019-01-30T06:16:49.345Z,0.00
2019-01-30T06:18:18.489Z,-0.10
2019-01-30T06:19:25.294Z,0.00
2019-01-30T06:20:32.107Z,0.00
2019-01-30T06:21:38.795Z,0.00
2019-01-30T06:22:46.120Z,0.00
2019-01-30T06:23:52.920Z,0.00
2019-01-30T06:24:59.989Z,0.00
2019-01-30T06:26:06.744Z,-0.10
2019-01-30T06:27:13.651Z,-0.10
2019-01-30T06:28:20.744Z,-0.10
2019-01-30T06:29:27.581Z,-0.10
2019-01-30T06:30:34.561Z,-0.10
2019-01-30T06:31:41.594Z,-0.10
2019-01-30T06:32:48.346Z,-0.10
2019-01-30T06:33:55.465Z,-0.10
2019-01-30T06:35:02.155Z,-0.10
2019-01-30T06:36:09.171Z,-0.10
2019-01-30T06:37:18.271Z,-0.10
2019-01-30T06:38:24.781Z,-0.10
2019-01-30T06:39:31.430Z,0.00
2019-01-30T06:40:38.472Z,-0.10
2019-01-30T06:41:45.488Z,-0.10
2019-01-30T06:42:52.538Z,-0.10
2019-01-30T06:43:59.704Z,-0.10
2019-01-30T06:45:07.709Z,-0.10
2019-01-30T06:46:14.370Z,-0.10
2019-01-30T06:47:21.099Z,-0.10
2019-01-30T06:48:28.157Z,-0.10
2019-01-30T06:49:35.542Z,-0.10
2019-01-30T06:50:42.486Z,-0.10
2019-01-30T06:51:49.158Z,-0.20
2019-01-30T06:52:56.143Z,-0.10
2019-01-30T06:54:02.794Z,-0.10
2019-01-30T06:55:10.212Z,-0.10
2019-01-30T06:56:16.931Z,-0.20
2019-01-30T06:57:24.030Z,-0.10
2019-01-30T06:58:30.704Z,-0.20
2019-01-30T06:59:37.397Z,-0.20
2019-01-30T07:00:44.460Z,-0.20
2019-01-30T07:01:51.133Z,-0.20
2019-01-30T07:02:59.433Z,-0.30
2019-01-30T07:04:06.177Z,-0.20
2019-01-30T07:05:13.297Z,-0.20
2019-01-30T07:06:20.082Z,-0.20
2019-01-30T07:07:26.820Z,-0.20
2019-01-30T07:08:33.501Z,-0.20
2019-01-30T07:09:40.191Z,-0.20
2019-01-30T07:10:47.235Z,-0.10
2019-01-30T07:11:54.100Z,-0.10
2019-01-30T07:13:01.799Z,-0.10
2019-01-30T07:14:08.794Z,-0.10
2019-01-30T07:15:16.811Z,-0.20
2019-01-30T07:16:23.514Z,-0.20
2019-01-30T07:17:30.192Z,-0.20
2019-01-30T07:18:37.178Z,-0.10
2019-01-30T07:19:43.866Z,-0.10
2019-01-30T07:20:50.557Z,-0.20
2019-01-30T07:21:57.238Z,-0.20
2019-01-30T07:23:03.983Z,-0.20
2019-01-30T07:24:10.688Z,-0.10
2019-01-30T07:25:19.135Z,-0.10
2019-01-30T07:26:25.874Z,-0.10
2019-01-30T07:27:32.899Z,-0.10
2019-01-30T07:28:39.609Z,-0.10
2019-01-30T07:29:46.273Z,-0.20
2019-01-30T07:30:53.309Z,-0.20
2019-01-30T07:32:00.018Z,-0.20
2019-01-30T07:33:08.350Z,-0.20
2019-01-30T07:34:15.207Z,-0.20
2019-01-30T07:35:21.933Z,-0.20
2019-01-30T07:36:28.671Z,-0.20
2019-01-30T07:37:35.804Z,-0.20
2019-01-30T07:38:42.873Z,-0.20
2019-01-30T07:39:50.249Z,-0.20
2019-01-30T07:40:57.354Z,-0.20
2019-01-30T07:42:04.029Z,-0.10
2019-01-30T07:43:10.806Z,-0.10
2019-01-30T07:44:17.868Z,-0.10
2019-01-30T07:45:27.655Z,-0.10
2019-01-30T07:46:34.770Z,-0.10
2019-01-30T07:47:42.127Z,-0.10
2019-01-30T07:48:48.812Z,-0.10
2019-01-30T07:49:55.623Z,-0.10
2019-01-30T07:51:02.650Z,-0.10
2019-01-30T07:52:09.415Z,-0.10
2019-01-30T07:53:18.399Z,-0.10
2019-01-30T07:54:24.789Z,0.00
2019-01-30T07:55:31.896Z,0.00
2019-01-30T07:56:38.719Z,0.00
2019-01-30T07:57:45.906Z,0.00
2019-01-30T07:58:52.956Z,0.10
2019-01-30T07:59:59.676Z,0.10
2019-01-30T08:01:06.655Z,0.00
2019-01-30T08:02:13.758Z,0.10
2019-01-30T08:03:20.711Z,0.10
2019-01-30T08:04:28.078Z,0.10
2019-01-30T08:05:35.074Z,0.10
2019-01-30T08:06:41.872Z,0.20
2019-01-30T08:07:48.688Z,0.10
2019-01-30T08:08:55.309Z,0.10
2019-01-30T08:10:02.008Z,0.10
2019-01-30T08:11:09.105Z,0.20
2019-01-30T08:12:16.413Z,0.10
2019-01-30T08:13:23.252Z,0.20
2019-01-30T08:14:30.003Z,0.10
2019-01-30T08:15:37.159Z,0.10
2019-01-30T08:16:44.215Z,0.20
2019-01-30T08:17:51.086Z,0.20
2019-01-30T08:18:57.850Z,0.10
2019-01-30T08:20:05.424Z,0.20
2019-01-30T08:21:12.088Z,0.20
2019-01-30T08:22:19.129Z,0.20
2019-01-30T08:23:26.348Z,0.20
2019-01-30T08:24:33.054Z,0.20
2019-01-30T08:25:40.171Z,0.30
2019-01-30T08:26:47.277Z,0.30
2019-01-30T08:27:54.381Z,0.30
2019-01-30T08:29:01.454Z,0.30
2019-01-30T08:30:23.688Z,0.30
2019-01-30T08:31:30.359Z,0.30
2019-01-30T08:32:37.250Z,0.30
2019-01-30T08:33:44.016Z,0.40
2019-01-30T08:34:50.711Z,0.30
2019-01-30T08:35:57.599Z,0.30
2019-01-30T08:37:04.298Z,0.40
2019-01-30T08:38:11.414Z,0.50
2019-01-30T08:39:18.120Z,0.50
2019-01-30T08:40:24.820Z,0.50
2019-01-30T08:41:31.969Z,0.50
2019-01-30T08:42:38.989Z,0.50
2019-01-30T08:43:45.724Z,0.50
2019-01-30T08:44:52.714Z,0.60
2019-01-30T08:45:59.367Z,0.60
2019-01-30T08:47:06.481Z,0.50
2019-01-30T08:48:13.503Z,0.60
2019-01-30T08:49:20.229Z,0.60
2019-01-30T08:50:27.210Z,0.60
2019-01-30T08:51:34.295Z,0.60
2019-01-30T08:52:41.016Z,0.60
2019-01-30T08:53:48.048Z,0.70
2019-01-30T08:54:55.009Z,0.70
2019-01-30T08:56:01.982Z,0.70
2019-01-30T08:57:08.629Z,0.70
2019-01-30T08:58:15.384Z,0.70
2019-01-30T08:59:22.296Z,0.70
2019-01-30T09:00:30.282Z,0.70
2019-01-30T09:01:36.937Z,0.80
2019-01-30T09:02:43.652Z,0.80
2019-01-30T09:03:50.712Z,0.80
2019-01-30T09:04:57.434Z,0.80
2019-01-30T09:06:04.189Z,0.80
2019-01-30T09:07:11.262Z,0.80
2019-01-30T09:08:18.211Z,0.80
2019-01-30T09:09:24.953Z,0.80
2019-01-30T09:10:31.947Z,0.80
2019-01-30T09:11:38.886Z,0.80
2019-01-30T09:12:45.926Z,0.80
2019-01-30T09:13:52.628Z,0.80
2019-01-30T09:14:59.348Z,0.80
2019-01-30T09:16:06.880Z,0.80
2019-01-30T09:17:13.552Z,0.80
2019-01-30T09:18:20.441Z,0.80
2019-01-30T09:19:27.449Z,0.90
2019-01-30T09:20:34.096Z,0.90
2019-01-30T09:21:40.872Z,0.90
2019-01-30T09:22:47.539Z,1.00
2019-01-30T09:23:54.193Z,1.00
2019-01-30T09:25:01.481Z,1.10
2019-01-30T09:26:08.128Z,1.20
2019-01-30T09:27:14.886Z,1.20
2019-01-30T09:28:21.577Z,1.30
2019-01-30T09:29:28.292Z,1.30
2019-01-30T09:30:38.354Z,1.30
2019-01-30T09:31:45.035Z,1.30
2019-01-30T09:32:51.772Z,1.30
2019-01-30T09:33:58.810Z,1.30
2019-01-30T09:35:06.060Z,1.40
2019-01-30T09:36:12.815Z,1.40
2019-01-30T09:37:19.522Z,1.50
2019-01-30T09:38:26.864Z,1.50
2019-01-30T09:39:34.035Z,1.50
2019-01-30T09:40:40.834Z,1.50
2019-01-30T09:41:47.536Z,1.50
2019-01-30T09:42:54.748Z,1.40
2019-01-30T09:44:02.170Z,1.40
2019-01-30T09:45:10.731Z,1.40
2019-01-30T09:46:17.463Z,1.40
2019-01-30T09:47:24.099Z,1.40
2019-01-30T09:48:30.852Z,1.50
2019-01-30T09:49:37.652Z,1.50
2019-01-30T09:50:44.386Z,1.50
2019-01-30T09:51:51.117Z,1.60
2019-01-30T09:52:58.156Z,1.60
2019-01-30T09:54:04.871Z,1.60
2019-01-30T09:55:13.309Z,1.70
2019-01-30T09:56:20.025Z,1.70
2019-01-30T09:57:27.097Z,1.70
2019-01-30T09:58:33.796Z,1.70
2019-01-30T09:59:40.449Z,1.70
2019-01-30T10:00:47.280Z,1.70
2019-01-30T10:01:54.406Z,1.70
2019-01-30T10:03:01.342Z,1.70
2019-01-30T10:04:08.502Z,1.70
2019-01-30T10:05:15.505Z,1.70
2019-01-30T10:06:22.474Z,1.70
2019-01-30T10:07:29.147Z,1.70
2019-01-30T10:08:35.857Z,1.70
2019-01-30T10:09:42.885Z,1.80
2019-01-30T10:10:49.573Z,1.80
2019-01-30T10:11:56.290Z,1.80
2019-01-30T10:13:03.514Z,1.80
2019-01-30T10:14:10.240Z,1.80
2019-01-30T10:15:19.587Z,1.90
2019-01-30T10:16:26.864Z,1.90
2019-01-30T10:17:33.898Z,2.00
2019-01-30T10:18:40.814Z,1.90
2019-01-30T10:19:47.570Z,2.00
2019-01-30T10:20:54.589Z,1.90
2019-01-30T10:22:01.342Z,1.90
2019-01-30T10:23:08.482Z,2.00
2019-01-30T10:24:16.235Z,2.00
2019-01-30T10:25:23.061Z,1.90
2019-01-30T10:26:30.078Z,1.90
2019-01-30T10:27:36.720Z,1.90
2019-01-30T10:28:43.726Z,1.80
2019-01-30T10:29:50.435Z,1.80
2019-01-30T10:30:57.478Z,1.90
2019-01-30T10:32:04.552Z,1.90
2019-01-30T10:33:11.241Z,1.90
2019-01-30T10:34:18.219Z,1.90
2019-01-30T10:35:24.984Z,2.00
2019-01-30T10:36:31.943Z,2.00
2019-01-30T10:37:38.599Z,2.00
2019-01-30T10:38:45.315Z,2.00
2019-01-30T10:39:52.709Z,2.00
2019-01-30T10:40:59.640Z,2.10
2019-01-30T10:42:06.721Z,2.10
2019-01-30T10:43:13.597Z,2.00
2019-01-30T10:44:20.331Z,2.10
2019-01-30T10:45:27.253Z,2.00
2019-01-30T10:46:34.288Z,2.10
2019-01-30T10:47:41.638Z,2.10
2019-01-30T10:48:48.712Z,2.10
2019-01-30T10:49:55.831Z,2.10
2019-01-30T10:51:02.525Z,2.10
2019-01-30T10:52:09.600Z,2.00
2019-01-30T10:53:17.919Z,2.10
2019-01-30T10:54:24.558Z,2.10
2019-01-30T10:55:32.871Z,2.10
2019-01-30T10:56:39.858Z,2.00
2019-01-30T10:57:48.091Z,2.00
2019-01-30T10:58:54.807Z,2.10
2019-01-30T11:00:01.923Z,2.10
2019-01-30T11:01:08.884Z,2.10
2019-01-30T11:02:15.968Z,2.10
2019-01-30T11:03:23.086Z,2.10
2019-01-30T11:04:29.786Z,2.10
2019-01-30T11:05:36.438Z,2.20
2019-01-30T11:06:43.146Z,2.20
2019-01-30T11:07:49.992Z,2.20
2019-01-30T11:08:57.002Z,2.10
2019-01-30T11:10:03.705Z,2.10
2019-01-30T11:11:10.415Z,2.10
2019-01-30T11:12:17.163Z,2.20
2019-01-30T11:13:24.045Z,2.20
2019-01-30T11:14:31.064Z,2.20
2019-01-30T11:15:38.138Z,2.20
2019-01-30T11:16:45.212Z,2.30
2019-01-30T11:17:52.190Z,2.20
2019-01-30T11:18:59.351Z,2.30
2019-01-30T11:20:08.192Z,2.30
2019-01-30T11:21:14.901Z,2.30
2019-01-30T11:22:21.946Z,2.30
2019-01-30T11:23:29.142Z,2.30
2019-01-30T11:24:36.089Z,2.30
2019-01-30T11:25:45.624Z,2.20
2019-01-30T11:26:52.367Z,2.20
2019-01-30T11:27:59.137Z,2.10
2019-01-30T11:29:06.698Z,2.10
2019-01-30T11:30:14.307Z,2.00
2019-01-30T11:31:21.339Z,2.10
2019-01-30T11:32:28.711Z,2.10
2019-01-30T11:33:35.712Z,2.10
2019-01-30T11:34:42.763Z,2.20
2019-01-30T11:35:49.463Z,2.20
2019-01-30T11:36:56.176Z,2.20
2019-01-30T11:38:03.326Z,2.20
2019-01-30T11:39:10.332Z,2.30
2019-01-30T11:40:18.806Z,2.30
2019-01-30T11:41:25.533Z,2.30
2019-01-30T11:42:32.216Z,2.30
2019-01-30T11:43:38.927Z,2.30
2019-01-30T11:44:45.574Z,2.30
2019-01-30T11:45:52.866Z,2.30
2019-01-30T11:46:59.548Z,2.40
2019-01-30T11:48:06.853Z,2.30
2019-01-30T11:49:13.962Z,2.30
2019-01-30T11:50:20.659Z,2.20
2019-01-30T11:51:27.296Z,2.20
2019-01-30T11:52:34.387Z,2.10
2019-01-30T11:53:41.217Z,2.10
2019-01-30T11:54:48.226Z,2.20
2019-01-30T11:55:54.943Z,2.20
2019-01-30T11:57:01.713Z,2.10
2019-01-30T11:58:09.073Z,2.20
2019-01-30T11:59:15.987Z,2.20
2019-01-30T12:00:28.942Z,2.30
2019-01-30T12:01:35.625Z,2.30
2019-01-30T12:02:47.878Z,2.30
2019-01-30T12:03:50.975Z,2.30
2019-01-30T12:04:57.693Z,2.30
2019-01-30T12:06:05.025Z,2.40
2019-01-30T12:07:12.211Z,2.40
2019-01-30T12:08:19.384Z,2.40
2019-01-30T12:09:26.747Z,2.40
2019-01-30T12:10:33.455Z,2.40
2019-01-30T12:11:40.442Z,2.40
2019-01-30T12:12:47.421Z,2.50
2019-01-30T12:13:54.134Z,2.50
2019-01-30T12:15:01.194Z,2.40
2019-01-30T12:16:07.940Z,2.40
2019-01-30T12:17:15.011Z,2.40
2019-01-30T12:18:22.192Z,2.40
2019-01-30T12:19:28.854Z,2.50
2019-01-30T12:20:35.834Z,2.50
2019-01-30T12:21:42.525Z,2.50
2019-01-30T12:22:49.548Z,2.40
2019-01-30T12:23:56.552Z,2.40
2019-01-30T12:25:03.270Z,2.30
2019-01-30T12:26:09.951Z,2.30
2019-01-30T12:27:16.996Z,2.30
2019-01-30T12:28:23.827Z,2.40
2019-01-30T12:29:30.510Z,2.40
2019-01-30T12:30:37.631Z,2.40
2019-01-30T12:31:44.291Z,2.40
2019-01-30T12:32:51.587Z,2.40
2019-01-30T12:33:59.189Z,2.40
2019-01-30T12:35:07.164Z,2.40
2019-01-30T12:36:13.879Z,2.40
2019-01-30T12:37:20.597Z,2.30
2019-01-30T12:38:27.690Z,2.50
2019-01-30T12:39:34.342Z,2.50
2019-01-30T12:40:41.189Z,2.60
2019-01-30T12:41:47.898Z,2.60
2019-01-30T12:42:54.783Z,2.70
2019-01-30T12:44:01.455Z,2.70
2019-01-30T12:45:11.622Z,2.70
2019-01-30T12:46:18.325Z,2.70
2019-01-30T12:47:25.397Z,2.80
2019-01-30T12:48:32.119Z,2.80
2019-01-30T12:49:38.813Z,2.90
2019-01-30T12:50:45.631Z,2.80
2019-01-30T12:51:52.372Z,2.80
2019-01-30T12:52:59.330Z,2.80
2019-01-30T12:54:06.047Z,2.70
2019-01-30T12:55:12.955Z,2.70
2019-01-30T12:56:20.294Z,2.80
2019-01-30T12:57:27.406Z,2.80
2019-01-30T12:58:34.163Z,2.80
2019-01-30T12:59:41.519Z,2.70
2019-01-30T13:00:48.647Z,2.70
2019-01-30T13:01:55.694Z,2.80
2019-01-30T13:03:02.857Z,2.70
2019-01-30T13:04:09.828Z,2.70
2019-01-30T13:05:17.953Z,2.80
2019-01-30T13:06:25.216Z,2.70
2019-01-30T13:07:31.875Z,2.60
2019-01-30T13:08:38.857Z,2.60
2019-01-30T13:09:45.509Z,2.60
2019-01-30T13:10:54.052Z,2.50
2019-01-30T13:12:00.795Z,2.50
2019-01-30T13:13:07.572Z,2.40
2019-01-30T13:14:14.669Z,2.40
2019-01-30T13:15:23.495Z,2.40
2019-01-30T13:16:30.218Z,2.40
2019-01-30T13:17:36.872Z,2.30
2019-01-30T13:18:43.641Z,2.40
2019-01-30T13:19:50.463Z,2.40
2019-01-30T13:20:57.133Z,2.40
2019-01-30T13:22:03.867Z,2.40
2019-01-30T13:23:10.528Z,2.40
2019-01-30T13:24:17.533Z,2.40
2019-01-30T13:25:33.582Z,2.40
2019-01-30T13:26:40.240Z,2.40
2019-01-30T13:27:47.298Z,2.40
2019-01-30T13:28:53.993Z,2.40
2019-01-30T13:30:01.156Z,2.30
2019-01-30T13:31:07.960Z,2.30
2019-01-30T13:32:14.884Z,2.30
2019-01-30T13:33:21.653Z,2.20
2019-01-30T13:34:28.739Z,2.20
2019-01-30T13:35:35.881Z,2.20
2019-01-30T13:36:42.891Z,2.20
2019-01-30T13:37:49.851Z,2.20
2019-01-30T13:38:56.905Z,2.10
2019-01-30T13:40:03.548Z,2.10
2019-01-30T13:41:10.241Z,2.10
2019-01-30T13:42:16.952Z,2.00
2019-01-30T13:43:24.526Z,2.10
2019-01-30T13:44:31.185Z,2.10
2019-01-30T13:45:37.845Z,2.00
2019-01-30T13:46:44.831Z,1.90
2019-01-30T13:47:51.522Z,1.80
2019-01-30T13:48:58.188Z,1.80
2019-01-30T13:50:07.192Z,1.80
2019-01-30T13:51:13.920Z,1.80
2019-01-30T13:52:20.675Z,1.80
2019-01-30T13:53:27.678Z,1.80
2019-01-30T13:54:34.323Z,1.70
2019-01-30T13:55:40.992Z,1.70
2019-01-30T13:56:47.667Z,1.70
2019-01-30T13:57:54.358Z,1.60
2019-01-30T13:59:01.371Z,1.60
2019-01-30T14:00:16.788Z,1.60
2019-01-30T14:01:23.424Z,1.50
2019-01-30T14:02:30.120Z,1.50
2019-01-30T14:03:37.211Z,1.40
2019-01-30T14:04:44.091Z,1.40
2019-01-30T14:05:50.776Z,1.40
2019-01-30T14:06:57.466Z,1.40
2019-01-30T14:08:05.597Z,1.40
2019-01-30T14:09:12.935Z,1.40
2019-01-30T14:10:19.827Z,1.30
2019-01-30T14:11:26.606Z,1.30
2019-01-30T14:12:33.675Z,1.30
2019-01-30T14:13:40.330Z,1.30
2019-01-30T14:14:47.400Z,1.30
2019-01-30T14:15:54.397Z,1.20
2019-01-30T14:17:01.091Z,1.30
2019-01-30T14:18:08.300Z,1.30
2019-01-30T14:19:15.051Z,1.30
2019-01-30T14:20:22.021Z,1.30
2019-01-30T14:21:29.115Z,1.30
2019-01-30T14:22:35.817Z,1.30
2019-01-30T14:23:42.918Z,1.40
2019-01-30T14:24:49.909Z,1.40
2019-01-30T14:25:56.610Z,1.40
2019-01-30T14:27:03.304Z,1.40
2019-01-30T14:28:10.645Z,1.40
2019-01-30T14:29:17.332Z,1.40
2019-01-30T14:30:34.063Z,1.40
2019-01-30T14:31:40.892Z,1.40
2019-01-30T14:32:47.569Z,1.40
2019-01-30T14:33:54.225Z,1.40
2019-01-30T14:35:10.525Z,1.40
2019-01-30T14:36:09.346Z,1.40
2019-01-30T14:37:16.026Z,1.50
2019-01-30T14:38:22.968Z,1.50
2019-01-30T14:39:29.707Z,1.50
2019-01-30T14:40:36.722Z,1.40
2019-01-30T14:41:43.415Z,1.50
2019-01-30T14:42:50.643Z,1.50
2019-01-30T14:43:57.730Z,1.50
2019-01-30T14:45:04.962Z,1.50
2019-01-30T14:46:11.657Z,1.40
2019-01-30T14:47:19.100Z,1.40
2019-01-30T14:48:26.126Z,1.40